sensor_id;sensor_type;location;lat;lon;timestamp;P1;durP1;ratioP1;P2;durP2;ratioP2
2658;SDS011;1339;53.304;10.406;2023-01-20T00:02:14;31.45;;;18.02;;
2658;SDS011;1339;53.304;10.406;2023-01-20T00:04:42;33.45;;;17.92;;
2658;SDS011;1339;53.304;10.406;2023-01-20T00:07:09;25.20;;;16.33;;
2658;SDS011;1339;53.304;10.406;2023-01-20T00:09:36;34.15;;;17.42;;
2658;SDS011;1339;53.304;10.406;2023-01-20T00:12:03;27.73;;;16.98;;
2658;SDS011;1339;53.304;10.406;2023-01-20T00:14:30;32.50;;;19.67;;
2658;SDS011;1339;53.304;10.406;2023-01-20T00:16:57;30.83;;;18.92;;
2658;SDS011;1339;53.304;10.406;2023-01-20T00:19:24;29.75;;;18.65;;
2658;SDS011;1339;53.304;10.406;2023-01-20T00:21:53;26.70;;;18.23;;
2658;SDS011;1339;53.304;10.406;2023-01-20T00:24:20;29.15;;;20.27;;
2658;SDS011;1339;53.304;10.406;2023-01-20T00:26:47;35.08;;;20.77;;
2658;SDS011;1339;53.304;10.406;2023-01-20T00:29:14;33.45;;;21.30;;
2658;SDS011;1339;53.304;10.406;2023-01-20T00:31:41;35.83;;;22.65;;
2658;SDS011;1339;53.304;10.406;2023-01-20T00:34:08;32.58;;;20.70;;
2658;SDS011;1339;53.304;10.406;2023-01-20T00:36:35;35.70;;;20.50;;
2658;SDS011;1339;53.304;10.406;2023-01-20T00:39:04;31.83;;;21.23;;
2658;SDS011;1339;53.304;10.406;2023-01-20T00:41:31;38.45;;;19.65;;
2658;SDS011;1339;53.304;10.406;2023-01-20T00:43:58;32.97;;;20.10;;
2658;SDS011;1339;53.304;10.406;2023-01-20T00:46:25;35.33;;;20.58;;
2658;SDS011;1339;53.304;10.406;2023-01-20T00:48:52;30.77;;;21.77;;
2658;SDS011;1339;53.304;10.406;2023-01-20T00:51:19;28.23;;;20.05;;
2658;SDS011;1339;53.304;10.406;2023-01-20T00:53:46;34.65;;;22.27;;
2658;SDS011;1339;53.304;10.406;2023-01-20T00:56:14;31.80;;;20.55;;
2658;SDS011;1339;53.304;10.406;2023-01-20T00:58:41;35.83;;;21.55;;
2658;SDS011;1339;53.304;10.406;2023-01-20T01:01:09;33.58;;;21.98;;
2658;SDS011;1339;53.304;10.406;2023-01-20T01:03:36;32.55;;;21.75;;
2658;SDS011;1339;53.304;10.406;2023-01-20T01:06:06;36.45;;;21.83;;
2658;SDS011;1339;53.304;10.406;2023-01-20T01:08:34;30.60;;;21.23;;
2658;SDS011;1339;53.304;10.406;2023-01-20T01:11:00;39.63;;;22.75;;
2658;SDS011;1339;53.304;10.406;2023-01-20T01:13:29;33.88;;;21.80;;
2658;SDS011;1339;53.304;10.406;2023-01-20T01:15:56;34.25;;;22.38;;
2658;SDS011;1339;53.304;10.406;2023-01-20T01:18:23;43.58;;;25.77;;
2658;SDS011;1339;53.304;10.406;2023-01-20T01:20:50;36.58;;;23.42;;
2658;SDS011;1339;53.304;10.406;2023-01-20T01:23:17;33.13;;;23.45;;
2658;SDS011;1339;53.304;10.406;2023-01-20T01:25:44;30.95;;;22.10;;
2658;SDS011;1339;53.304;10.406;2023-01-20T01:28:11;38.65;;;24.45;;
2658;SDS011;1339;53.304;10.406;2023-01-20T01:30:39;33.50;;;22.10;;
2658;SDS011;1339;53.304;10.406;2023-01-20T01:33:06;38.28;;;25.67;;
2658;SDS011;1339;53.304;10.406;2023-01-20T01:35:33;34.28;;;22.42;;
2658;SDS011;1339;53.304;10.406;2023-01-20T01:38:00;44.90;;;26.90;;
2658;SDS011;1339;53.304;10.406;2023-01-20T01:40:27;41.88;;;26.80;;
2658;SDS011;1339;53.304;10.406;2023-01-20T01:42:54;40.53;;;23.58;;
2658;SDS011;1339;53.304;10.406;2023-01-20T01:45:25;35.78;;;22.52;;
2658;SDS011;1339;53.304;10.406;2023-01-20T01:47:55;40.17;;;23.50;;
2658;SDS011;1339;53.304;10.406;2023-01-20T01:50:25;39.03;;;26.08;;
2658;SDS011;1339;53.304;10.406;2023-01-20T01:52:53;45.08;;;26.90;;
2658;SDS011;1339;53.304;10.406;2023-01-20T01:55:21;45.58;;;27.60;;
2658;SDS011;1339;53.304;10.406;2023-01-20T01:57:49;39.40;;;26.83;;
2658;SDS011;1339;53.304;10.406;2023-01-20T02:00:17;41.08;;;26.88;;
2658;SDS011;1339;53.304;10.406;2023-01-20T02:02:44;42.97;;;23.40;;
2658;SDS011;1339;53.304;10.406;2023-01-20T02:05:13;37.08;;;23.90;;
2658;SDS011;1339;53.304;10.406;2023-01-20T02:07:41;34.58;;;22.63;;
2658;SDS011;1339;53.304;10.406;2023-01-20T02:10:09;37.00;;;25.08;;
2658;SDS011;1339;53.304;10.406;2023-01-20T02:12:36;40.35;;;24.55;;
2658;SDS011;1339;53.304;10.406;2023-01-20T02:15:04;38.72;;;25.52;;
2658;SDS011;1339;53.304;10.406;2023-01-20T02:17:31;36.58;;;23.95;;
2658;SDS011;1339;53.304;10.406;2023-01-20T02:20:02;44.08;;;27.50;;
2658;SDS011;1339;53.304;10.406;2023-01-20T02:22:40;36.80;;;26.00;;
2658;SDS011;1339;53.304;10.406;2023-01-20T02:25:13;39.67;;;26.10;;
2658;SDS011;1339;53.304;10.406;2023-01-20T02:27:53;34.35;;;23.65;;
2658;SDS011;1339;53.304;10.406;2023-01-20T02:30:38;36.13;;;23.75;;
2658;SDS011;1339;53.304;10.406;2023-01-20T02:33:09;38.05;;;24.65;;
2658;SDS011;1339;53.304;10.406;2023-01-20T02:35:38;32.33;;;22.33;;
2658;SDS011;1339;53.304;10.406;2023-01-20T02:38:09;34.15;;;23.27;;
2658;SDS011;1339;53.304;10.406;2023-01-20T02:40:39;36.85;;;25.42;;
2658;SDS011;1339;53.304;10.406;2023-01-20T02:43:08;41.20;;;26.33;;
2658;SDS011;1339;53.304;10.406;2023-01-20T02:45:41;35.50;;;22.10;;
2658;SDS011;1339;53.304;10.406;2023-01-20T02:48:11;42.33;;;27.58;;
2658;SDS011;1339;53.304;10.406;2023-01-20T02:50:42;42.67;;;23.80;;
2658;SDS011;1339;53.304;10.406;2023-01-20T02:53:11;37.47;;;25.23;;
2658;SDS011;1339;53.304;10.406;2023-01-20T02:55:39;32.17;;;21.20;;
2658;SDS011;1339;53.304;10.406;2023-01-20T02:58:09;42.13;;;23.90;;
2658;SDS011;1339;53.304;10.406;2023-01-20T03:00:38;38.97;;;25.35;;
2658;SDS011;1339;53.304;10.406;2023-01-20T03:03:06;39.03;;;24.58;;
2658;SDS011;1339;53.304;10.406;2023-01-20T03:05:36;45.53;;;23.92;;
2658;SDS011;1339;53.304;10.406;2023-01-20T03:08:06;38.08;;;24.55;;
2658;SDS011;1339;53.304;10.406;2023-01-20T03:10:34;43.88;;;24.38;;
2658;SDS011;1339;53.304;10.406;2023-01-20T03:13:04;39.10;;;23.73;;
2658;SDS011;1339;53.304;10.406;2023-01-20T03:15:36;39.13;;;24.20;;
2658;SDS011;1339;53.304;10.406;2023-01-20T03:18:06;37.13;;;24.95;;
2658;SDS011;1339;53.304;10.406;2023-01-20T03:20:33;37.15;;;23.10;;
2658;SDS011;1339;53.304;10.406;2023-01-20T03:23:01;44.85;;;24.52;;
2658;SDS011;1339;53.304;10.406;2023-01-20T03:25:28;36.30;;;22.85;;
2658;SDS011;1339;53.304;10.406;2023-01-20T03:27:56;39.10;;;22.80;;
2658;SDS011;1339;53.304;10.406;2023-01-20T03:30:23;34.63;;;20.67;;
2658;SDS011;1339;53.304;10.406;2023-01-20T03:32:50;37.33;;;22.45;;
2658;SDS011;1339;53.304;10.406;2023-01-20T03:35:17;46.03;;;24.95;;
2658;SDS011;1339;53.304;10.406;2023-01-20T03:37:45;39.35;;;24.23;;
2658;SDS011;1339;53.304;10.406;2023-01-20T03:40:13;37.88;;;23.45;;
2658;SDS011;1339;53.304;10.406;2023-01-20T03:42:43;38.33;;;22.98;;
2658;SDS011;1339;53.304;10.406;2023-01-20T03:45:17;36.20;;;22.42;;
2658;SDS011;1339;53.304;10.406;2023-01-20T03:47:49;36.28;;;21.63;;
2658;SDS011;1339;53.304;10.406;2023-01-20T03:50:20;37.90;;;22.95;;
2658;SDS011;1339;53.304;10.406;2023-01-20T03:52:53;42.50;;;24.73;;
2658;SDS011;1339;53.304;10.406;2023-01-20T03:55:24;48.20;;;22.02;;
2658;SDS011;1339;53.304;10.406;2023-01-20T03:57:53;39.45;;;22.40;;
2658;SDS011;1339;53.304;10.406;2023-01-20T04:00:21;41.80;;;25.15;;
2658;SDS011;1339;53.304;10.406;2023-01-20T04:02:49;41.67;;;25.95;;
2658;SDS011;1339;53.304;10.406;2023-01-20T04:05:18;38.35;;;23.45;;
2658;SDS011;1339;53.304;10.406;2023-01-20T04:07:45;41.92;;;22.92;;
2658;SDS011;1339;53.304;10.406;2023-01-20T04:10:13;41.75;;;21.85;;
2658;SDS011;1339;53.304;10.406;2023-01-20T04:12:42;36.35;;;21.83;;
2658;SDS011;1339;53.304;10.406;2023-01-20T04:15:09;36.97;;;23.92;;
2658;SDS011;1339;53.304;10.406;2023-01-20T04:17:36;36.80;;;23.42;;
2658;SDS011;1339;53.304;10.406;2023-01-20T04:20:04;38.28;;;21.52;;
2658;SDS011;1339;53.304;10.406;2023-01-20T04:22:33;38.63;;;21.95;;
2658;SDS011;1339;53.304;10.406;2023-01-20T04:25:02;34.22;;;18.35;;
2658;SDS011;1339;53.304;10.406;2023-01-20T04:27:31;33.35;;;20.42;;
2658;SDS011;1339;53.304;10.406;2023-01-20T04:30:00;30.02;;;19.90;;
2658;SDS011;1339;53.304;10.406;2023-01-20T04:32:26;39.97;;;20.33;;
2658;SDS011;1339;53.304;10.406;2023-01-20T04:34:53;32.65;;;19.55;;
2658;SDS011;1339;53.304;10.406;2023-01-20T04:37:20;36.03;;;20.67;;
2658;SDS011;1339;53.304;10.406;2023-01-20T04:39:47;37.33;;;20.92;;
2658;SDS011;1339;53.304;10.406;2023-01-20T04:42:14;41.83;;;20.65;;
2658;SDS011;1339;53.304;10.406;2023-01-20T04:44:41;42.15;;;24.27;;
2658;SDS011;1339;53.304;10.406;2023-01-20T04:47:09;32.58;;;19.85;;
2658;SDS011;1339;53.304;10.406;2023-01-20T04:49:36;37.92;;;19.92;;
2658;SDS011;1339;53.304;10.406;2023-01-20T04:52:03;33.35;;;18.10;;
2658;SDS011;1339;53.304;10.406;2023-01-20T04:54:30;35.25;;;19.52;;
2658;SDS011;1339;53.304;10.406;2023-01-20T04:56:57;33.03;;;20.38;;
2658;SDS011;1339;53.304;10.406;2023-01-20T04:59:24;36.50;;;21.83;;
2658;SDS011;1339;53.304;10.406;2023-01-20T05:01:51;37.60;;;20.83;;
2658;SDS011;1339;53.304;10.406;2023-01-20T05:04:20;38.63;;;21.52;;
2658;SDS011;1339;53.304;10.406;2023-01-20T05:06:47;36.65;;;21.65;;
2658;SDS011;1339;53.304;10.406;2023-01-20T05:09:14;33.65;;;21.90;;
2658;SDS011;1339;53.304;10.406;2023-01-20T05:11:41;32.30;;;19.92;;
2658;SDS011;1339;53.304;10.406;2023-01-20T05:14:09;37.35;;;20.17;;
2658;SDS011;1339;53.304;10.406;2023-01-20T05:16:36;33.13;;;18.58;;
2658;SDS011;1339;53.304;10.406;2023-01-20T05:19:03;34.05;;;18.92;;
2658;SDS011;1339;53.304;10.406;2023-01-20T05:21:31;37.80;;;19.02;;
2658;SDS011;1339;53.304;10.406;2023-01-20T05:23:58;37.88;;;19.85;;
2658;SDS011;1339;53.304;10.406;2023-01-20T05:26:25;37.92;;;21.25;;
2658;SDS011;1339;53.304;10.406;2023-01-20T05:28:52;38.15;;;19.98;;
2658;SDS011;1339;53.304;10.406;2023-01-20T05:31:19;30.25;;;17.35;;
2658;SDS011;1339;53.304;10.406;2023-01-20T05:33:46;33.67;;;21.10;;
2658;SDS011;1339;53.304;10.406;2023-01-20T05:36:13;35.05;;;21.10;;
2658;SDS011;1339;53.304;10.406;2023-01-20T05:38:41;26.58;;;17.20;;
2658;SDS011;1339;53.304;10.406;2023-01-20T05:41:09;32.97;;;17.98;;
2658;SDS011;1339;53.304;10.406;2023-01-20T05:43:36;35.38;;;17.45;;
2658;SDS011;1339;53.304;10.406;2023-01-20T05:46:03;26.63;;;16.85;;
2658;SDS011;1339;53.304;10.406;2023-01-20T05:48:30;29.95;;;18.52;;
2658;SDS011;1339;53.304;10.406;2023-01-20T05:50:57;40.92;;;19.83;;
2658;SDS011;1339;53.304;10.406;2023-01-20T05:53:24;30.58;;;18.00;;
2658;SDS011;1339;53.304;10.406;2023-01-20T05:55:58;39.70;;;19.00;;
2658;SDS011;1339;53.304;10.406;2023-01-20T05:58:26;33.70;;;19.35;;
2658;SDS011;1339;53.304;10.406;2023-01-20T06:00:52;34.25;;;18.08;;
2658;SDS011;1339;53.304;10.406;2023-01-20T06:03:19;32.08;;;17.45;;
2658;SDS011;1339;53.304;10.406;2023-01-20T06:05:46;32.30;;;17.92;;
2658;SDS011;1339;53.304;10.406;2023-01-20T06:08:14;29.67;;;17.27;;
2658;SDS011;1339;53.304;10.406;2023-01-20T06:10:41;31.73;;;16.17;;
2658;SDS011;1339;53.304;10.406;2023-01-20T06:13:09;32.08;;;19.25;;
2658;SDS011;1339;53.304;10.406;2023-01-20T06:15:37;31.15;;;18.38;;
2658;SDS011;1339;53.304;10.406;2023-01-20T06:18:04;26.33;;;17.02;;
2658;SDS011;1339;53.304;10.406;2023-01-20T06:20:31;38.30;;;21.25;;
2658;SDS011;1339;53.304;10.406;2023-01-20T06:22:58;28.15;;;17.33;;
2658;SDS011;1339;53.304;10.406;2023-01-20T06:25:25;36.83;;;18.27;;
2658;SDS011;1339;53.304;10.406;2023-01-20T06:27:52;28.75;;;17.23;;
2658;SDS011;1339;53.304;10.406;2023-01-20T06:30:20;30.67;;;17.02;;
2658;SDS011;1339;53.304;10.406;2023-01-20T06:32:47;35.30;;;19.45;;
2658;SDS011;1339;53.304;10.406;2023-01-20T06:35:14;31.52;;;16.52;;
2658;SDS011;1339;53.304;10.406;2023-01-20T06:37:41;28.33;;;17.92;;
2658;SDS011;1339;53.304;10.406;2023-01-20T06:40:09;30.65;;;18.35;;
2658;SDS011;1339;53.304;10.406;2023-01-20T06:42:36;38.80;;;20.23;;
2658;SDS011;1339;53.304;10.406;2023-01-20T06:45:03;35.42;;;19.08;;
2658;SDS011;1339;53.304;10.406;2023-01-20T06:47:31;37.30;;;19.92;;
2658;SDS011;1339;53.304;10.406;2023-01-20T06:49:58;34.25;;;18.83;;
2658;SDS011;1339;53.304;10.406;2023-01-20T06:52:25;25.73;;;17.65;;
2658;SDS011;1339;53.304;10.406;2023-01-20T06:54:52;33.30;;;19.63;;
2658;SDS011;1339;53.304;10.406;2023-01-20T06:57:19;37.95;;;19.50;;
2658;SDS011;1339;53.304;10.406;2023-01-20T06:59:46;29.13;;;17.52;;
2658;SDS011;1339;53.304;10.406;2023-01-20T07:02:13;33.30;;;18.23;;
2658;SDS011;1339;53.304;10.406;2023-01-20T07:04:41;33.15;;;17.17;;
2658;SDS011;1339;53.304;10.406;2023-01-20T07:07:09;31.42;;;18.13;;
2658;SDS011;1339;53.304;10.406;2023-01-20T07:09:36;33.05;;;18.38;;
2658;SDS011;1339;53.304;10.406;2023-01-20T07:12:03;32.13;;;17.48;;
2658;SDS011;1339;53.304;10.406;2023-01-20T07:14:30;26.05;;;16.98;;
2658;SDS011;1339;53.304;10.406;2023-01-20T07:16:57;41.15;;;22.80;;
2658;SDS011;1339;53.304;10.406;2023-01-20T07:19:24;34.53;;;18.77;;
2658;SDS011;1339;53.304;10.406;2023-01-20T07:21:53;32.63;;;18.13;;
2658;SDS011;1339;53.304;10.406;2023-01-20T07:24:19;33.05;;;19.67;;
2658;SDS011;1339;53.304;10.406;2023-01-20T07:26:46;40.00;;;21.38;;
2658;SDS011;1339;53.304;10.406;2023-01-20T07:29:13;30.60;;;16.25;;
2658;SDS011;1339;53.304;10.406;2023-01-20T07:31:40;36.20;;;18.45;;
2658;SDS011;1339;53.304;10.406;2023-01-20T07:34:07;30.05;;;15.75;;
2658;SDS011;1339;53.304;10.406;2023-01-20T07:36:34;36.72;;;22.52;;
2658;SDS011;1339;53.304;10.406;2023-01-20T07:39:02;32.03;;;18.80;;
2658;SDS011;1339;53.304;10.406;2023-01-20T07:41:29;30.40;;;19.80;;
2658;SDS011;1339;53.304;10.406;2023-01-20T07:43:56;36.60;;;19.27;;
2658;SDS011;1339;53.304;10.406;2023-01-20T07:46:23;31.40;;;18.95;;
2658;SDS011;1339;53.304;10.406;2023-01-20T07:48:50;34.22;;;18.65;;
2658;SDS011;1339;53.304;10.406;2023-01-20T07:51:17;30.13;;;17.05;;
2658;SDS011;1339;53.304;10.406;2023-01-20T07:53:45;32.75;;;19.10;;
2658;SDS011;1339;53.304;10.406;2023-01-20T07:56:14;30.10;;;17.23;;
2658;SDS011;1339;53.304;10.406;2023-01-20T07:58:42;34.75;;;19.58;;
2658;SDS011;1339;53.304;10.406;2023-01-20T08:01:10;33.03;;;19.17;;
2658;SDS011;1339;53.304;10.406;2023-01-20T08:03:37;35.13;;;18.73;;
2658;SDS011;1339;53.304;10.406;2023-01-20T08:06:04;27.80;;;16.88;;
2658;SDS011;1339;53.304;10.406;2023-01-20T08:08:32;35.38;;;18.80;;
2658;SDS011;1339;53.304;10.406;2023-01-20T08:10:59;27.10;;;15.80;;
2658;SDS011;1339;53.304;10.406;2023-01-20T08:13:28;28.02;;;16.42;;
2658;SDS011;1339;53.304;10.406;2023-01-20T08:15:57;31.67;;;17.58;;
2658;SDS011;1339;53.304;10.406;2023-01-20T08:18:25;31.35;;;17.80;;
2658;SDS011;1339;53.304;10.406;2023-01-20T08:20:52;30.35;;;17.90;;
2658;SDS011;1339;53.304;10.406;2023-01-20T08:23:19;37.35;;;19.42;;
2658;SDS011;1339;53.304;10.406;2023-01-20T08:25:45;31.38;;;18.45;;
2658;SDS011;1339;53.304;10.406;2023-01-20T08:28:12;27.17;;;17.50;;
2658;SDS011;1339;53.304;10.406;2023-01-20T08:30:41;29.52;;;16.77;;
2658;SDS011;1339;53.304;10.406;2023-01-20T08:33:08;29.45;;;17.27;;
2658;SDS011;1339;53.304;10.406;2023-01-20T08:35:35;27.98;;;18.95;;
2658;SDS011;1339;53.304;10.406;2023-01-20T08:38:02;30.02;;;17.63;;
2658;SDS011;1339;53.304;10.406;2023-01-20T08:40:30;33.13;;;17.08;;
2658;SDS011;1339;53.304;10.406;2023-01-20T08:42:57;30.58;;;16.77;;
2658;SDS011;1339;53.304;10.406;2023-01-20T08:45:24;36.03;;;19.40;;
2658;SDS011;1339;53.304;10.406;2023-01-20T08:47:52;36.17;;;18.55;;
2658;SDS011;1339;53.304;10.406;2023-01-20T08:50:19;30.52;;;19.08;;
2658;SDS011;1339;53.304;10.406;2023-01-20T08:52:47;34.92;;;19.35;;
2658;SDS011;1339;53.304;10.406;2023-01-20T08:55:14;33.50;;;17.70;;
2658;SDS011;1339;53.304;10.406;2023-01-20T08:57:41;27.65;;;17.75;;
2658;SDS011;1339;53.304;10.406;2023-01-20T09:00:10;26.83;;;16.08;;
2658;SDS011;1339;53.304;10.406;2023-01-20T09:02:37;33.08;;;17.67;;
2658;SDS011;1339;53.304;10.406;2023-01-20T09:05:09;39.08;;;19.90;;
2658;SDS011;1339;53.304;10.406;2023-01-20T09:07:36;33.28;;;17.40;;
2658;SDS011;1339;53.304;10.406;2023-01-20T09:10:03;37.05;;;19.00;;
2658;SDS011;1339;53.304;10.406;2023-01-20T09:12:31;32.55;;;19.60;;
2658;SDS011;1339;53.304;10.406;2023-01-20T09:14:58;31.35;;;17.00;;
2658;SDS011;1339;53.304;10.406;2023-01-20T09:17:25;38.13;;;18.52;;
2658;SDS011;1339;53.304;10.406;2023-01-20T09:19:52;33.17;;;17.23;;
2658;SDS011;1339;53.304;10.406;2023-01-20T09:22:21;32.08;;;17.92;;
2658;SDS011;1339;53.304;10.406;2023-01-20T09:24:47;32.05;;;17.13;;
2658;SDS011;1339;53.304;10.406;2023-01-20T09:27:14;28.92;;;16.65;;
2658;SDS011;1339;53.304;10.406;2023-01-20T09:29:41;31.38;;;17.85;;
2658;SDS011;1339;53.304;10.406;2023-01-20T09:32:09;33.45;;;19.48;;
2658;SDS011;1339;53.304;10.406;2023-01-20T09:34:36;35.15;;;19.08;;
2658;SDS011;1339;53.304;10.406;2023-01-20T09:37:03;30.27;;;18.90;;
2658;SDS011;1339;53.304;10.406;2023-01-20T09:39:49;28.58;;;18.77;;
2658;SDS011;1339;53.304;10.406;2023-01-20T09:42:37;31.15;;;19.10;;
2658;SDS011;1339;53.304;10.406;2023-01-20T09:45:26;28.77;;;16.40;;
2658;SDS011;1339;53.304;10.406;2023-01-20T09:47:57;29.08;;;19.10;;
2658;SDS011;1339;53.304;10.406;2023-01-20T09:50:30;28.73;;;17.00;;
2658;SDS011;1339;53.304;10.406;2023-01-20T09:53:23;23.98;;;15.15;;
2658;SDS011;1339;53.304;10.406;2023-01-20T09:55:56;36.58;;;17.33;;
2658;SDS011;1339;53.304;10.406;2023-01-20T09:58:24;26.38;;;15.63;;
2658;SDS011;1339;53.304;10.406;2023-01-20T10:00:54;24.92;;;13.18;;
2658;SDS011;1339;53.304;10.406;2023-01-20T10:03:24;28.85;;;17.80;;
2658;SDS011;1339;53.304;10.406;2023-01-20T10:05:54;22.45;;;13.52;;
2658;SDS011;1339;53.304;10.406;2023-01-20T10:08:25;21.27;;;15.02;;
2658;SDS011;1339;53.304;10.406;2023-01-20T10:10:57;21.40;;;13.30;;
2658;SDS011;1339;53.304;10.406;2023-01-20T10:13:27;26.90;;;13.38;;
2658;SDS011;1339;53.304;10.406;2023-01-20T10:15:57;16.52;;;11.27;;
2658;SDS011;1339;53.304;10.406;2023-01-20T10:18:26;21.30;;;13.68;;
2658;SDS011;1339;53.304;10.406;2023-01-20T10:20:57;23.15;;;13.98;;
2658;SDS011;1339;53.304;10.406;2023-01-20T10:23:26;22.35;;;13.23;;
2658;SDS011;1339;53.304;10.406;2023-01-20T10:25:55;18.52;;;14.48;;
2658;SDS011;1339;53.304;10.406;2023-01-20T10:28:27;19.40;;;13.98;;
2658;SDS011;1339;53.304;10.406;2023-01-20T10:30:54;22.17;;;12.40;;
2658;SDS011;1339;53.304;10.406;2023-01-20T10:33:24;24.40;;;13.80;;
2658;SDS011;1339;53.304;10.406;2023-01-20T10:35:52;17.30;;;12.45;;
2658;SDS011;1339;53.304;10.406;2023-01-20T10:38:21;25.77;;;13.02;;
2658;SDS011;1339;53.304;10.406;2023-01-20T10:40:51;20.23;;;12.75;;
2658;SDS011;1339;53.304;10.406;2023-01-20T10:43:21;24.92;;;12.55;;
2658;SDS011;1339;53.304;10.406;2023-01-20T10:45:56;21.23;;;12.65;;
2658;SDS011;1339;53.304;10.406;2023-01-20T10:48:31;18.02;;;11.98;;
2658;SDS011;1339;53.304;10.406;2023-01-20T10:51:02;18.65;;;13.15;;
2658;SDS011;1339;53.304;10.406;2023-01-20T10:53:32;19.60;;;13.73;;
2658;SDS011;1339;53.304;10.406;2023-01-20T10:56:05;19.73;;;12.60;;
2658;SDS011;1339;53.304;10.406;2023-01-20T10:58:33;18.88;;;13.00;;
2658;SDS011;1339;53.304;10.406;2023-01-20T11:01:03;20.42;;;13.05;;
2658;SDS011;1339;53.304;10.406;2023-01-20T11:03:33;19.60;;;13.98;;
2658;SDS011;1339;53.304;10.406;2023-01-20T11:06:00;16.63;;;10.98;;
2658;SDS011;1339;53.304;10.406;2023-01-20T11:08:28;19.02;;;11.95;;
2658;SDS011;1339;53.304;10.406;2023-01-20T11:10:56;21.10;;;13.40;;
2658;SDS011;1339;53.304;10.406;2023-01-20T11:13:24;15.27;;;12.20;;
2658;SDS011;1339;53.304;10.406;2023-01-20T11:15:52;17.80;;;12.60;;
2658;SDS011;1339;53.304;10.406;2023-01-20T11:18:23;17.33;;;11.45;;
2658;SDS011;1339;53.304;10.406;2023-01-20T11:20:52;18.17;;;13.63;;
2658;SDS011;1339;53.304;10.406;2023-01-20T11:23:20;17.08;;;10.88;;
2658;SDS011;1339;53.304;10.406;2023-01-20T11:25:54;19.58;;;12.48;;
2658;SDS011;1339;53.304;10.406;2023-01-20T11:28:22;17.13;;;11.52;;
2658;SDS011;1339;53.304;10.406;2023-01-20T11:30:49;22.33;;;12.15;;
2658;SDS011;1339;53.304;10.406;2023-01-20T11:33:18;19.38;;;11.52;;
2658;SDS011;1339;53.304;10.406;2023-01-20T11:38:29;16.98;;;12.32;;
2658;SDS011;1339;53.304;10.406;2023-01-20T11:40:57;16.27;;;11.50;;
2658;SDS011;1339;53.304;10.406;2023-01-20T11:43:27;21.58;;;11.52;;
2658;SDS011;1339;53.304;10.406;2023-01-20T11:46:08;17.35;;;11.80;;
2658;SDS011;1339;53.304;10.406;2023-01-20T11:48:35;17.17;;;11.13;;
2658;SDS011;1339;53.304;10.406;2023-01-20T11:51:02;13.32;;;11.07;;
2658;SDS011;1339;53.304;10.406;2023-01-20T11:53:31;19.27;;;11.85;;
2658;SDS011;1339;53.304;10.406;2023-01-20T11:56:00;15.68;;;11.32;;
2658;SDS011;1339;53.304;10.406;2023-01-20T11:58:28;12.45;;;9.10;;
2658;SDS011;1339;53.304;10.406;2023-01-20T12:01:01;15.45;;;11.55;;
2658;SDS011;1339;53.304;10.406;2023-01-20T12:03:40;15.38;;;11.02;;
2658;SDS011;1339;53.304;10.406;2023-01-20T12:06:12;13.35;;;9.90;;
2658;SDS011;1339;53.304;10.406;2023-01-20T12:08:44;16.77;;;12.63;;
2658;SDS011;1339;53.304;10.406;2023-01-20T12:11:12;15.98;;;10.25;;
2658;SDS011;1339;53.304;10.406;2023-01-20T12:13:43;14.98;;;11.15;;
2658;SDS011;1339;53.304;10.406;2023-01-20T12:16:29;15.75;;;9.73;;
2658;SDS011;1339;53.304;10.406;2023-01-20T12:18:58;17.02;;;10.15;;
2658;SDS011;1339;53.304;10.406;2023-01-20T12:21:27;14.27;;;9.80;;
2658;SDS011;1339;53.304;10.406;2023-01-20T12:23:58;17.88;;;9.77;;
2658;SDS011;1339;53.304;10.406;2023-01-20T12:26:26;14.50;;;10.25;;
2658;SDS011;1339;53.304;10.406;2023-01-20T12:28:54;12.05;;;9.73;;
2658;SDS011;1339;53.304;10.406;2023-01-20T12:31:23;12.35;;;10.10;;
2658;SDS011;1339;53.304;10.406;2023-01-20T12:33:50;15.82;;;10.90;;
2658;SDS011;1339;53.304;10.406;2023-01-20T12:39:24;15.05;;;10.30;;
2658;SDS011;1339;53.304;10.406;2023-01-20T12:42:10;15.27;;;10.75;;
2658;SDS011;1339;53.304;10.406;2023-01-20T12:44:41;16.33;;;10.98;;
2658;SDS011;1339;53.304;10.406;2023-01-20T12:47:13;19.00;;;10.95;;
2658;SDS011;1339;53.304;10.406;2023-01-20T12:49:50;17.42;;;10.20;;
2658;SDS011;1339;53.304;10.406;2023-01-20T12:52:28;19.45;;;10.60;;
2658;SDS011;1339;53.304;10.406;2023-01-20T12:57:54;13.77;;;10.00;;
2658;SDS011;1339;53.304;10.406;2023-01-20T13:00:29;17.45;;;10.30;;
2658;SDS011;1339;53.304;10.406;2023-01-20T13:03:06;14.00;;;9.55;;
2658;SDS011;1339;53.304;10.406;2023-01-20T13:05:47;13.43;;;10.00;;
2658;SDS011;1339;53.304;10.406;2023-01-20T13:08:19;14.10;;;9.90;;
2658;SDS011;1339;53.304;10.406;2023-01-20T13:10:50;17.17;;;11.18;;
2658;SDS011;1339;53.304;10.406;2023-01-20T13:13:25;14.98;;;11.05;;
2658;SDS011;1339;53.304;10.406;2023-01-20T13:15:56;13.85;;;9.15;;
2658;SDS011;1339;53.304;10.406;2023-01-20T13:18:26;19.05;;;9.85;;
2658;SDS011;1339;53.304;10.406;2023-01-20T13:20:54;12.57;;;8.23;;
2658;SDS011;1339;53.304;10.406;2023-01-20T13:23:21;13.18;;;9.50;;
2658;SDS011;1339;53.304;10.406;2023-01-20T13:25:50;10.38;;;8.98;;
2658;SDS011;1339;53.304;10.406;2023-01-20T13:28:17;13.07;;;7.70;;
2658;SDS011;1339;53.304;10.406;2023-01-20T13:30:47;13.02;;;9.02;;
2658;SDS011;1339;53.304;10.406;2023-01-20T13:33:16;14.43;;;10.40;;
2658;SDS011;1339;53.304;10.406;2023-01-20T13:35:44;13.35;;;9.85;;
2658;SDS011;1339;53.304;10.406;2023-01-20T13:38:16;11.18;;;8.85;;
2658;SDS011;1339;53.304;10.406;2023-01-20T13:40:51;14.60;;;10.20;;
2658;SDS011;1339;53.304;10.406;2023-01-20T13:51:43;14.25;;;8.25;;
2658;SDS011;1339;53.304;10.406;2023-01-20T13:59:47;10.73;;;9.30;;
2658;SDS011;1339;53.304;10.406;2023-01-20T14:02:15;11.80;;;9.18;;
2658;SDS011;1339;53.304;10.406;2023-01-20T14:04:43;12.13;;;9.15;;
2658;SDS011;1339;53.304;10.406;2023-01-20T14:07:21;13.32;;;8.45;;
2658;SDS011;1339;53.304;10.406;2023-01-20T14:09:51;18.58;;;9.90;;
2658;SDS011;1339;53.304;10.406;2023-01-20T14:12:18;13.65;;;9.35;;
2658;SDS011;1339;53.304;10.406;2023-01-20T14:14:45;14.48;;;9.70;;
2658;SDS011;1339;53.304;10.406;2023-01-20T14:17:16;11.80;;;9.13;;
2658;SDS011;1339;53.304;10.406;2023-01-20T14:19:45;13.07;;;9.02;;
2658;SDS011;1339;53.304;10.406;2023-01-20T14:22:16;11.90;;;8.38;;
2658;SDS011;1339;53.304;10.406;2023-01-20T14:24:46;10.93;;;9.25;;
2658;SDS011;1339;53.304;10.406;2023-01-20T14:27:16;11.98;;;8.93;;
2658;SDS011;1339;53.304;10.406;2023-01-20T14:29:43;14.70;;;9.45;;
2658;SDS011;1339;53.304;10.406;2023-01-20T14:32:15;10.95;;;8.20;;
2658;SDS011;1339;53.304;10.406;2023-01-20T14:34:42;12.65;;;9.60;;
2658;SDS011;1339;53.304;10.406;2023-01-20T14:37:17;14.93;;;10.23;;
2658;SDS011;1339;53.304;10.406;2023-01-20T14:39:48;13.82;;;9.50;;
2658;SDS011;1339;53.304;10.406;2023-01-20T14:42:16;9.43;;;8.10;;
2658;SDS011;1339;53.304;10.406;2023-01-20T14:44:45;11.57;;;7.90;;
2658;SDS011;1339;53.304;10.406;2023-01-20T14:47:12;11.73;;;8.40;;
2658;SDS011;1339;53.304;10.406;2023-01-20T14:49:39;17.20;;;9.95;;
2658;SDS011;1339;53.304;10.406;2023-01-20T14:52:07;11.57;;;7.63;;
2658;SDS011;1339;53.304;10.406;2023-01-20T14:54:37;10.85;;;7.10;;
2658;SDS011;1339;53.304;10.406;2023-01-20T14:57:25;10.48;;;7.95;;
2658;SDS011;1339;53.304;10.406;2023-01-20T15:00:03;13.05;;;8.02;;
2658;SDS011;1339;53.304;10.406;2023-01-20T15:02:38;11.25;;;7.25;;
2658;SDS011;1339;53.304;10.406;2023-01-20T15:05:17;7.75;;;6.00;;
2658;SDS011;1339;53.304;10.406;2023-01-20T15:07:44;9.35;;;6.93;;
2658;SDS011;1339;53.304;10.406;2023-01-20T15:10:11;7.38;;;6.30;;